createdAt,value
2019-02-12T00:02:04.232Z,85.00
2019-02-12T00:07:21.654Z,85.00
2019-02-12T00:12:38.717Z,84.70
2019-02-12T00:17:55.467Z,85.00
2019-02-12T00:23:12.281Z,85.10
2019-02-12T00:28:29.614Z,85.30
2019-02-12T00:33:46.703Z,85.10
2019-02-12T00:39:04.698Z,84.60
2019-02-12T00:44:21.607Z,85.20
2019-02-12T00:49:38.480Z,85.50
2019-02-12T00:54:55.713Z,85.40
2019-02-12T01:00:13.597Z,85.50
2019-02-12T01:05:31.283Z,85.70
2019-02-12T01:10:48.534Z,85.70
2019-02-12T01:16:05.686Z,85.20
2019-02-12T01:21:26.254Z,85.00
2019-02-12T01:26:42.450Z,85.40
2019-02-12T01:31:59.587Z,86.00
2019-02-12T01:37:16.452Z,86.20
2019-02-12T01:42:33.339Z,85.70
2019-02-12T01:47:50.446Z,85.80
2019-02-12T01:53:07.958Z,85.60
2019-02-12T01:58:25.112Z,85.80
2019-02-12T02:03:41.910Z,86.10
2019-02-12T02:08:59.503Z,86.60
2019-02-12T02:14:16.698Z,86.80
2019-02-12T02:19:34.409Z,87.20
2019-02-12T02:24:52.216Z,87.50
2019-02-12T02:30:09.543Z,87.40
2019-02-12T02:35:27.278Z,87.30
2019-02-12T02:40:44.327Z,87.60
2019-02-12T02:46:01.572Z,87.60
2019-02-12T02:51:18.767Z,87.00
2019-02-12T02:56:36.353Z,87.00
2019-02-12T03:01:54.094Z,87.30
2019-02-12T03:07:11.727Z,87.40
2019-02-12T03:12:28.676Z,87.00
2019-02-12T03:17:45.738Z,87.30
2019-02-12T03:23:03.150Z,87.40
2019-02-12T03:28:20.514Z,87.60
2019-02-12T03:33:37.789Z,87.80
2019-02-12T03:38:55.852Z,87.80
2019-02-12T03:44:13.094Z,88.00
2019-02-12T03:49:30.022Z,88.00
2019-02-12T03:54:47.111Z,88.00
2019-02-12T04:00:04.898Z,88.00
2019-02-12T04:05:21.701Z,87.90
2019-02-12T04:10:39.000Z,88.00
2019-02-12T04:15:56.948Z,87.40
2019-02-12T04:21:13.758Z,86.70
2019-02-12T04:26:30.561Z,86.80
2019-02-12T04:31:47.442Z,87.00
2019-02-12T04:37:04.707Z,87.00
2019-02-12T04:42:21.831Z,86.70
2019-02-12T04:47:39.088Z,86.60
2019-02-12T04:52:56.794Z,86.70
2019-02-12T04:58:13.710Z,86.70
2019-02-12T05:03:30.781Z,86.80
2019-02-12T05:08:47.596Z,86.90
2019-02-12T05:14:04.446Z,86.80
2019-02-12T05:19:21.438Z,86.70
2019-02-12T05:24:38.117Z,86.50
2019-02-12T05:29:54.922Z,86.50
2019-02-12T05:35:12.306Z,86.50
2019-02-12T05:40:29.623Z,86.70
2019-02-12T05:45:46.742Z,86.70
2019-02-12T05:51:03.993Z,86.90
2019-02-12T05:56:20.913Z,87.00
2019-02-12T06:01:38.163Z,87.20
2019-02-12T06:06:55.434Z,87.40
2019-02-12T06:12:13.300Z,88.00
2019-02-12T06:17:30.207Z,88.40
2019-02-12T06:22:47.529Z,89.10
2019-02-12T06:28:04.471Z,89.00
2019-02-12T06:33:21.335Z,89.00
2019-02-12T06:38:38.619Z,89.30
2019-02-12T06:43:56.015Z,89.50
2019-02-12T06:49:13.119Z,89.60
2019-02-12T06:54:30.523Z,89.70
2019-02-12T06:59:47.431Z,90.00
2019-02-12T07:05:04.416Z,90.00
2019-02-12T07:10:21.525Z,90.40
2019-02-12T07:15:39.302Z,90.60
2019-02-12T07:20:56.915Z,91.40
2019-02-12T07:26:13.692Z,92.00
2019-02-12T07:31:30.558Z,91.60
2019-02-12T07:36:47.483Z,91.70
2019-02-12T07:42:04.250Z,92.10
2019-02-12T07:47:21.875Z,91.80
2019-02-12T07:52:39.272Z,92.30
2019-02-12T07:57:56.419Z,92.00
2019-02-12T08:03:13.694Z,92.30
2019-02-12T08:08:30.919Z,91.70
2019-02-12T08:13:48.488Z,92.50
2019-02-12T08:19:05.271Z,92.50
2019-02-12T08:24:22.032Z,91.90
2019-02-12T08:29:39.375Z,91.70
2019-02-12T08:34:56.373Z,91.80
2019-02-12T08:40:14.071Z,92.20
2019-02-12T08:45:31.162Z,91.80
2019-02-12T08:50:48.263Z,91.80
2019-02-12T08:56:05.522Z,91.70
2019-02-12T09:01:22.705Z,92.40
2019-02-12T09:06:40.073Z,91.80
2019-02-12T09:11:57.161Z,91.80
2019-02-12T09:17:14.159Z,91.80
2019-02-12T09:22:31.400Z,91.90
2019-02-12T09:27:48.277Z,91.80
2019-02-12T09:33:05.418Z,91.70
2019-02-12T09:38:22.495Z,91.80
2019-02-12T09:43:39.184Z,91.80
2019-02-12T09:48:56.222Z,91.40
2019-02-12T09:54:13.142Z,91.70
2019-02-12T09:59:29.999Z,90.90
2019-02-12T10:04:47.165Z,91.20
2019-02-12T10:10:04.073Z,90.90
2019-02-12T10:15:21.214Z,91.00
2019-02-12T10:20:38.123Z,90.70
2019-02-12T10:25:55.101Z,90.60
2019-02-12T10:31:12.144Z,91.00
2019-02-12T10:36:29.847Z,91.00
2019-02-12T10:41:46.694Z,91.10
2019-02-12T10:47:03.901Z,90.80
2019-02-12T10:52:21.274Z,91.00
2019-02-12T10:57:38.145Z,90.80
2019-02-12T11:02:55.297Z,91.00
2019-02-12T11:08:12.631Z,90.80
2019-02-12T11:13:30.051Z,90.70
2019-02-12T11:18:47.469Z,90.70
2019-02-12T11:24:04.735Z,90.50
2019-02-12T11:29:21.698Z,90.30
2019-02-12T11:34:38.742Z,90.30
2019-02-12T11:39:55.674Z,90.40
2019-02-12T11:45:13.045Z,90.40
2019-02-12T11:50:30.273Z,90.40
2019-02-12T11:55:47.264Z,90.70
2019-02-12T12:01:07.246Z,90.50
2019-02-12T12:06:24.606Z,90.40
2019-02-12T12:11:41.526Z,90.30
2019-02-12T12:16:58.318Z,90.30
2019-02-12T12:22:15.292Z,90.00
2019-02-12T12:27:32.508Z,89.90
2019-02-12T12:32:49.806Z,89.90
2019-02-12T12:38:07.512Z,89.40
2019-02-12T12:43:24.351Z,88.70
2019-02-12T12:48:41.258Z,87.70
2019-02-12T12:53:58.778Z,87.00
2019-02-12T12:59:15.813Z,87.00
2019-02-12T13:04:32.810Z,87.20
2019-02-12T13:09:49.777Z,87.30
2019-02-12T13:15:07.120Z,87.10
2019-02-12T13:20:24.147Z,87.30
2019-02-12T13:25:41.918Z,87.20
2019-02-12T13:30:58.874Z,86.80
2019-02-12T13:36:16.555Z,85.30
2019-02-12T13:41:33.590Z,83.30
2019-02-12T13:46:50.501Z,83.30
2019-02-12T13:52:07.837Z,83.60
2019-02-12T13:57:24.850Z,83.20
2019-02-12T14:02:41.943Z,83.40
2019-02-12T14:07:58.721Z,83.20
2019-02-12T14:13:15.757Z,82.90
2019-02-12T14:18:33.315Z,83.10
2019-02-12T14:23:50.944Z,82.30
2019-02-12T14:29:07.839Z,82.90
2019-02-12T14:34:24.779Z,82.40
2019-02-12T14:39:42.552Z,82.40
2019-02-12T14:45:00.266Z,82.40
2019-02-12T14:50:17.875Z,81.60
2019-02-12T14:55:35.028Z,80.40
2019-02-12T15:00:52.426Z,79.00
2019-02-12T15:06:09.375Z,78.90
2019-02-12T15:11:26.403Z,79.70
2019-02-12T15:16:43.415Z,80.10
2019-02-12T15:22:00.358Z,80.20
2019-02-12T15:27:17.879Z,80.20
2019-02-12T15:32:34.870Z,80.80
2019-02-12T15:37:51.586Z,80.20
2019-02-12T15:43:10.103Z,80.10
2019-02-12T15:48:26.995Z,80.50
2019-02-12T15:53:44.257Z,81.40
2019-02-12T15:59:03.098Z,80.20
2019-02-12T16:04:21.658Z,80.60
2019-02-12T16:09:39.210Z,81.20
2019-02-12T16:14:57.365Z,81.40
2019-02-12T16:20:15.596Z,81.60
2019-02-12T16:25:32.937Z,81.40
2019-02-12T16:30:52.155Z,81.70
2019-02-12T16:36:09.304Z,81.60
2019-02-12T16:41:26.923Z,81.70
2019-02-12T16:46:43.764Z,81.80
2019-02-12T16:52:00.636Z,82.00
2019-02-12T16:57:18.003Z,82.10
2019-02-12T17:02:35.393Z,82.40
2019-02-12T17:07:52.224Z,82.50
2019-02-12T17:13:09.724Z,82.50
2019-02-12T17:18:27.079Z,82.60
2019-02-12T17:23:44.624Z,82.60
2019-02-12T17:29:01.941Z,82.90
2019-02-12T17:34:19.748Z,83.10
2019-02-12T17:39:37.353Z,83.20
2019-02-12T17:44:55.027Z,83.40
2019-02-12T17:50:12.097Z,83.50
2019-02-12T17:55:29.567Z,83.60
2019-02-12T18:00:46.865Z,83.30
2019-02-12T18:06:03.709Z,83.50
2019-02-12T18:11:21.245Z,83.60
2019-02-12T18:16:38.949Z,83.40
2019-02-12T18:21:56.673Z,83.40
2019-02-12T18:27:13.623Z,83.20
2019-02-12T18:32:30.977Z,82.80
2019-02-12T18:37:48.185Z,82.20
2019-02-12T18:43:04.930Z,82.50
2019-02-12T18:48:21.914Z,83.20
2019-02-12T18:53:39.555Z,83.50
2019-02-12T18:58:56.608Z,83.80
2019-02-12T19:04:13.763Z,84.10
2019-02-12T19:09:30.862Z,84.40
2019-02-12T19:14:48.019Z,84.50
2019-02-12T19:20:05.098Z,84.80
2019-02-12T19:25:22.801Z,84.90
2019-02-12T19:30:40.092Z,85.10
2019-02-12T19:35:57.510Z,85.30
2019-02-12T19:41:14.764Z,85.50
2019-02-12T19:46:31.870Z,85.80
2019-02-12T19:51:49.045Z,86.20
2019-02-12T19:57:06.171Z,86.80
2019-02-12T20:02:23.247Z,87.60
2019-02-12T20:07:40.342Z,88.50
2019-02-12T20:12:57.756Z,89.40
2019-02-12T20:18:14.781Z,89.40
2019-02-12T20:23:32.298Z,89.30
2019-02-12T20:28:49.848Z,89.50
2019-02-12T20:34:07.419Z,89.70
2019-02-12T20:39:24.851Z,90.20
2019-02-12T20:44:41.884Z,90.60
2019-02-12T20:49:58.828Z,91.00
2019-02-12T20:55:16.541Z,90.90
2019-02-12T21:00:33.449Z,91.10
2019-02-12T21:05:50.419Z,91.30
2019-02-12T21:11:07.778Z,91.00
2019-02-12T21:16:24.741Z,91.10
2019-02-12T21:21:42.125Z,91.10
2019-02-12T21:26:59.366Z,91.30
2019-02-12T21:32:16.465Z,91.80
2019-02-12T21:37:34.164Z,91.90
2019-02-12T21:42:51.182Z,91.70
2019-02-12T21:48:07.952Z,92.00
2019-02-12T21:53:24.742Z,92.00
2019-02-12T21:58:42.368Z,91.90
2019-02-12T22:03:59.309Z,91.70
2019-02-12T22:09:17.510Z,91.80
2019-02-12T22:14:34.436Z,91.80
2019-02-12T22:19:51.755Z,91.90
2019-02-12T22:25:09.113Z,91.90
2019-02-12T22:30:26.294Z,91.90
2019-02-12T22:35:44.181Z,92.00
2019-02-12T22:41:01.075Z,91.90
2019-02-12T22:46:17.927Z,91.90
2019-02-12T22:51:35.199Z,92.20
2019-02-12T22:56:52.043Z,92.20
2019-02-12T23:02:09.496Z,92.50
2019-02-12T23:07:26.612Z,92.20
2019-02-12T23:12:43.587Z,92.40
2019-02-12T23:18:00.725Z,92.50
2019-02-12T23:23:17.729Z,92.40
2019-02-12T23:28:34.849Z,92.20
2019-02-12T23:33:52.164Z,92.20
2019-02-12T23:39:10.473Z,92.40
2019-02-12T23:44:27.582Z,92.50
2019-02-12T23:49:44.617Z,92.50
2019-02-12T23:55:02.233Z,92.40
